Time;durP1;ratioP1;P1;durP2;ratioP2;P2;SDS_P1;SDS_P2;PMS_P1;PMS_P2;Temp;Humidity;BMP_temperature;BMP_pressure;BME280_temperature;BME280_humidity;BME280_pressure;Samples;Min_cycle;Max_cycle;Signal;HPM_P1;HPM_P2
2023/09/29 00:00:53;;;;;;;6.00;0.95;;;15.70;99.90;;;;;;4918292;29;20508;-91
2023/09/29 00:03:19;;;;;;;3.30;1.00;;;15.80;99.90;;;;;;4918109;28;20034;-89
2023/09/29 00:05:45;;;;;;;2.80;0.95;;;15.70;99.90;;;;;;4933516;29;20468;-90
2023/09/29 00:08:22;;;;;;;4.00;1.60;;;15.80;99.90;;;;;;4935887;29;20034;-90
2023/09/29 00:10:50;;;;;;;4.32;1.05;;;15.80;99.90;;;;;;4917027;29;20110;-90
2023/09/29 00:13:16;;;;;;;3.90;1.15;;;15.80;99.90;;;;;;4918286;29;20043;-90
2023/09/29 00:15:42;;;;;;;2.47;0.93;;;15.80;99.90;;;;;;4935736;28;20109;-90
2023/09/29 00:18:08;;;;;;;4.75;0.90;;;15.90;99.90;;;;;;4935013;29;20122;-91
2023/09/29 00:20:34;;;;;;;4.07;1.20;;;15.80;99.90;;;;;;4919598;29;20454;-89
2023/09/29 00:23:01;;;;;;;5.82;1.20;;;15.90;99.90;;;;;;4952449;28;20491;-90
2023/09/29 00:25:27;;;;;;;5.82;0.93;;;15.80;99.90;;;;;;4918404;29;20066;-90
2023/09/29 00:27:53;;;;;;;4.13;1.10;;;15.80;99.90;;;;;;4935263;29;20057;-92
2023/09/29 00:30:20;;;;;;;5.13;0.93;;;15.90;99.90;;;;;;4916319;29;20031;-90
2023/09/29 00:32:50;;;;;;;3.83;1.10;;;15.90;99.90;;;;;;4934641;29;20028;-91
2023/09/29 00:35:24;;;;;;;3.95;1.05;;;15.90;99.90;;;;;;4923390;28;20049;-91
2023/09/29 00:37:57;;;;;;;3.65;1.00;;;16.00;99.90;;;;;;4922811;29;20086;-91
2023/09/29 00:40:23;;;;;;;4.82;0.90;;;16.00;99.90;;;;;;4931690;29;20035;-91
2023/09/29 00:42:49;;;;;;;3.42;1.00;;;16.00;99.90;;;;;;4916172;29;20038;-90
2023/09/29 00:45:26;;;;;;;3.05;1.00;;;16.00;99.90;;;;;;4920716;29;20027;-93
2023/09/29 00:47:57;;;;;;;3.40;1.00;;;16.00;99.90;;;;;;4935850;29;20081;-92
2023/09/29 00:50:28;;;;;;;3.50;1.17;;;16.10;99.90;;;;;;4935088;29;20130;-90
2023/09/29 00:52:58;;;;;;;4.15;1.42;;;16.00;99.90;;;;;;4950800;28;20030;-91
2023/09/29 00:55:27;;;;;;;3.92;1.20;;;16.10;99.90;;;;;;4934578;28;20031;-90
2023/09/29 00:57:56;;;;;;;3.75;1.40;;;16.10;99.90;;;;;;4919213;29;20058;-90
2023/09/29 01:03:05;;;;;;;3.88;1.17;;;16.20;99.90;;;;;;4934023;29;20483;-92
2023/09/29 01:05:44;;;;;;;6.00;1.58;;;16.20;99.90;;;;;;4915272;29;20038;-90
2023/09/29 01:08:15;;;;;;;4.00;1.40;;;16.20;99.90;;;;;;4934705;29;20074;-92
2023/09/29 01:10:41;;;;;;;4.10;1.80;;;16.20;99.90;;;;;;4919230;29;20399;-91
2023/09/29 01:13:08;;;;;;;4.80;1.38;;;16.20;99.90;;;;;;4934694;29;20027;-90
2023/09/29 01:15:34;;;;;;;2.90;1.20;;;16.20;99.90;;;;;;4919117;28;20050;-90
2023/09/29 01:18:01;;;;;;;3.35;1.17;;;16.30;99.90;;;;;;4922778;28;20031;-91
2023/09/29 01:20:28;;;;;;;4.40;2.08;;;16.30;99.90;;;;;;4915904;29;20085;-91
2023/09/29 01:22:55;;;;;;;4.03;1.45;;;16.30;99.90;;;;;;4918621;28;20039;-91
2023/09/29 01:25:21;;;;;;;3.58;1.63;;;16.30;99.90;;;;;;4935847;29;20050;-90
2023/09/29 01:27:48;;;;;;;4.03;1.60;;;16.30;99.90;;;;;;4950652;29;20392;-91
2023/09/29 01:30:14;;;;;;;6.53;1.40;;;16.30;99.90;;;;;;4918641;29;20027;-89
2023/09/29 01:32:42;;;;;;;5.15;1.73;;;16.40;99.90;;;;;;4952834;28;20027;-90
2023/09/29 01:35:09;;;;;;;4.63;1.60;;;16.30;99.90;;;;;;4951445;28;20019;-89
2023/09/29 01:37:36;;;;;;;6.35;1.75;;;16.30;99.90;;;;;;4934802;29;20089;-91
2023/09/29 01:40:02;;;;;;;3.55;1.40;;;16.30;99.90;;;;;;4932965;29;20035;-90
2023/09/29 01:42:28;;;;;;;2.78;1.35;;;16.30;99.90;;;;;;4950502;28;20047;-90
2023/09/29 01:44:53;;;;;;;4.90;1.50;;;16.40;99.90;;;;;;4951934;28;20023;-90
2023/09/29 01:47:19;;;;;;;2.28;0.95;;;16.40;99.90;;;;;;4930624;29;20043;-92
2023/09/29 01:49:44;;;;;;;5.15;2.00;;;16.40;99.90;;;;;;4934782;29;20102;-90
2023/09/29 01:52:10;;;;;;;3.20;1.20;;;16.40;99.90;;;;;;4935695;29;20028;-90
2023/09/29 01:54:36;;;;;;;3.38;1.45;;;16.40;99.90;;;;;;4935364;29;20055;-90
2023/09/29 01:57:02;;;;;;;4.60;1.85;;;16.40;99.90;;;;;;4935306;28;20114;-90
2023/09/29 01:59:28;;;;;;;5.22;1.52;;;16.40;99.90;;;;;;4915861;29;20078;-90
2023/09/29 02:01:54;;;;;;;3.42;1.17;;;16.40;99.90;;;;;;4916892;29;20492;-90
2023/09/29 02:04:20;;;;;;;5.40;1.30;;;16.40;99.90;;;;;;4935279;29;20042;-92
2023/09/29 02:06:45;;;;;;;3.88;1.45;;;16.40;99.90;;;;;;4915770;29;20031;-90
2023/09/29 02:09:11;;;;;;;4.15;1.40;;;16.40;99.90;;;;;;4934125;29;20122;-89
2023/09/29 02:11:41;;;;;;;4.55;1.52;;;16.40;99.90;;;;;;4919609;28;20023;-91
2023/09/29 02:14:06;;;;;;;2.90;1.05;;;16.50;99.90;;;;;;4933671;29;20030;-89
2023/09/29 02:16:34;;;;;;;3.67;1.50;;;16.50;99.90;;;;;;4915912;29;20086;-89
2023/09/29 02:19:01;;;;;;;3.85;1.50;;;16.50;99.90;;;;;;4948461;28;20443;-88
2023/09/29 02:21:31;;;;;;;3.40;1.45;;;16.50;99.90;;;;;;4934069;29;20263;-90
2023/09/29 02:23:58;;;;;;;3.17;1.40;;;16.50;99.90;;;;;;4918020;29;20066;-91
2023/09/29 02:26:25;;;;;;;2.88;1.50;;;16.50;99.90;;;;;;4933565;29;20088;-90
2023/09/29 02:28:50;;;;;;;4.45;1.25;;;16.60;99.90;;;;;;4935172;28;20027;-90
2023/09/29 02:31:17;;;;;;;4.80;2.00;;;16.50;99.90;;;;;;4918194;29;20027;-90
2023/09/29 02:33:42;;;;;;;3.47;1.42;;;16.50;99.90;;;;;;4931721;29;20027;-91
2023/09/29 02:36:08;;;;;;;3.35;1.40;;;16.50;99.90;;;;;;4919135;28;20094;-89
2023/09/29 02:38:36;;;;;;;3.22;1.20;;;16.60;99.90;;;;;;4914702;29;20031;-91
2023/09/29 02:41:02;;;;;;;3.67;1.30;;;16.60;99.90;;;;;;4915954;29;20027;-89
2023/09/29 02:43:30;;;;;;;3.10;1.40;;;16.60;99.90;;;;;;4918238;28;20395;-92
2023/09/29 02:45:59;;;;;;;4.28;1.33;;;16.50;99.90;;;;;;4933117;29;20043;-92
2023/09/29 02:48:25;;;;;;;2.97;1.30;;;16.60;99.90;;;;;;4933912;29;20473;-89
2023/09/29 02:50:51;;;;;;;4.25;0.98;;;16.60;99.90;;;;;;4915566;29;20038;-91
2023/09/29 02:53:16;;;;;;;3.25;0.80;;;16.60;99.90;;;;;;4917483;29;20039;-90
2023/09/29 02:55:44;;;;;;;2.78;1.27;;;16.60;99.90;;;;;;4919366;29;20058;-92
2023/09/29 02:58:10;;;;;;;2.47;1.20;;;16.60;99.90;;;;;;4936595;28;20027;-91
2023/09/29 03:00:35;;;;;;;3.25;1.30;;;16.60;99.90;;;;;;4952817;28;20050;-90
2023/09/29 03:03:03;;;;;;;3.00;1.30;;;16.60;99.90;;;;;;4937286;29;20064;-90
2023/09/29 03:05:29;;;;;;;2.47;0.75;;;16.60;99.90;;;;;;4938143;28;20027;-91
2023/09/29 03:07:57;;;;;;;2.60;1.10;;;16.60;99.90;;;;;;4921115;29;20034;-89
2023/09/29 03:10:25;;;;;;;2.42;1.00;;;16.60;99.90;;;;;;4933232;29;20032;-89
2023/09/29 03:12:51;;;;;;;2.10;0.95;;;16.60;99.90;;;;;;4937210;29;20039;-91
2023/09/29 03:15:17;;;;;;;2.05;0.88;;;16.60;99.90;;;;;;4920597;29;20033;-90
2023/09/29 03:17:46;;;;;;;3.25;0.85;;;16.60;99.90;;;;;;4954114;28;20047;-90
2023/09/29 03:20:12;;;;;;;2.63;1.05;;;16.60;99.90;;;;;;4920449;29;20134;-89
2023/09/29 03:22:44;;;;;;;1.55;0.57;;;16.60;99.90;;;;;;4937194;29;20132;-90
2023/09/29 03:25:10;;;;;;;2.10;0.75;;;16.60;99.90;;;;;;4916051;29;20055;-90
2023/09/29 03:27:37;;;;;;;1.73;0.63;;;16.60;99.90;;;;;;4921049;29;20031;-90
2023/09/29 03:30:07;;;;;;;1.85;0.77;;;16.60;99.90;;;;;;4921644;29;20051;-91
2023/09/29 03:32:33;;;;;;;2.45;0.80;;;16.60;99.90;;;;;;4937867;28;20066;-91
2023/09/29 03:34:59;;;;;;;3.35;0.70;;;16.70;99.90;;;;;;4953710;29;20417;-91
2023/09/29 03:37:27;;;;;;;2.13;0.60;;;16.60;99.90;;;;;;4920838;29;20122;-91
2023/09/29 03:39:53;;;;;;;1.95;0.50;;;16.70;99.90;;;;;;4916066;29;20034;-91
2023/09/29 03:42:22;;;;;;;1.77;0.57;;;16.70;99.90;;;;;;4938751;29;20723;-89
2023/09/29 03:44:48;;;;;;;3.13;0.47;;;16.70;99.90;;;;;;4934047;29;20032;-90
2023/09/29 03:47:14;;;;;;;2.88;0.65;;;16.70;99.90;;;;;;4923507;29;20042;-90
2023/09/29 03:49:43;;;;;;;1.45;0.60;;;16.80;99.90;;;;;;4921893;28;20118;-89
2023/09/29 03:52:08;;;;;;;1.83;0.50;;;16.90;99.90;;;;;;4920457;28;20024;-90
2023/09/29 03:54:35;;;;;;;1.77;0.50;;;16.80;99.90;;;;;;4920488;29;20050;-90
2023/09/29 03:57:04;;;;;;;2.72;0.50;;;16.80;99.90;;;;;;4920533;29;20041;-90
2023/09/29 03:59:30;;;;;;;1.20;0.50;;;16.90;99.90;;;;;;4917149;28;20031;-90
2023/09/29 04:01:55;;;;;;;1.55;0.40;;;16.90;99.90;;;;;;4920503;29;20038;-93
2023/09/29 04:04:21;;;;;;;2.03;0.50;;;16.90;99.90;;;;;;4920907;29;20321;-89
2023/09/29 04:06:47;;;;;;;1.80;0.40;;;16.80;99.90;;;;;;4936040;28;20031;-89
2023/09/29 04:09:12;;;;;;;2.20;0.40;;;16.80;99.90;;;;;;4920195;29;20031;-90
2023/09/29 04:11:40;;;;;;;2.25;0.38;;;16.80;99.90;;;;;;4936182;28;20027;-88
2023/09/29 04:14:06;;;;;;;3.05;0.40;;;16.90;99.90;;;;;;4935811;29;20032;-89
2023/09/29 04:16:32;;;;;;;1.20;0.32;;;16.80;99.90;;;;;;4920353;28;20122;-90
2023/09/29 04:18:57;;;;;;;2.25;0.40;;;16.90;99.90;;;;;;4936477;28;20110;-89
2023/09/29 04:21:23;;;;;;;1.38;0.40;;;16.90;99.90;;;;;;4918760;29;20027;-89
2023/09/29 04:23:49;;;;;;;1.98;0.60;;;16.90;99.90;;;;;;4951352;28;20045;-90
2023/09/29 04:26:15;;;;;;;2.13;0.50;;;16.90;99.90;;;;;;4937513;28;20578;-93
2023/09/29 04:28:41;;;;;;;2.25;0.40;;;17.00;99.90;;;;;;4953440;28;20062;-91
2023/09/29 04:31:07;;;;;;;1.85;0.40;;;16.90;99.90;;;;;;4918464;28;20062;-92
2023/09/29 04:33:33;;;;;;;1.20;0.40;;;16.90;99.90;;;;;;4937649;28;20045;-91
2023/09/29 04:35:58;;;;;;;1.80;0.50;;;16.90;99.90;;;;;;4920690;29;20027;-90
2023/09/29 04:38:25;;;;;;;1.80;0.75;;;17.00;99.90;;;;;;4939222;29;20035;-88
2023/09/29 04:40:50;;;;;;;2.20;0.68;;;17.00;99.90;;;;;;4923116;28;20024;-92
2023/09/29 04:43:18;;;;;;;1.63;0.60;;;17.00;99.90;;;;;;4921291;28;20070;-92
2023/09/29 04:45:44;;;;;;;1.98;0.50;;;17.00;99.90;;;;;;4918991;29;20071;-92
2023/09/29 04:48:09;;;;;;;1.20;0.40;;;17.10;99.90;;;;;;4922930;29;20040;-93
2023/09/29 04:50:36;;;;;;;2.08;0.50;;;17.10;99.90;;;;;;4937409;29;20031;-91
2023/09/29 04:53:12;;;;;;;2.33;0.40;;;17.10;99.90;;;;;;4937893;29;20152;-92
2023/09/29 04:55:38;;;;;;;1.60;0.40;;;17.10;99.90;;;;;;4939919;28;20034;-89
2023/09/29 04:58:04;;;;;;;2.05;0.40;;;17.10;99.90;;;;;;4938223;29;20030;-89
2023/09/29 05:00:30;;;;;;;2.10;0.50;;;17.10;99.90;;;;;;4936890;29;20051;-89
2023/09/29 05:02:56;;;;;;;1.50;0.50;;;17.10;99.90;;;;;;4918485;29;20039;-89
2023/09/29 05:05:28;;;;;;;1.35;0.50;;;17.20;99.90;;;;;;4930143;28;20050;-88
2023/09/29 05:07:56;;;;;;;1.50;0.50;;;17.20;99.90;;;;;;4958739;28;20034;-88
2023/09/29 05:10:22;;;;;;;1.42;0.60;;;17.20;99.90;;;;;;4937491;29;20330;-91
2023/09/29 05:12:48;;;;;;;1.20;0.50;;;17.30;99.90;;;;;;4918463;28;20082;-89
2023/09/29 05:15:14;;;;;;;1.25;0.50;;;17.20;99.90;;;;;;4940006;29;20035;-91
2023/09/29 05:17:42;;;;;;;1.33;0.40;;;17.20;99.90;;;;;;4915900;28;20032;-88
2023/09/29 05:20:10;;;;;;;1.38;0.40;;;17.20;99.90;;;;;;4936586;29;20023;-89
2023/09/29 05:22:36;;;;;;;2.13;0.47;;;17.30;99.90;;;;;;4936752;29;20558;-91
2023/09/29 05:25:02;;;;;;;1.30;0.47;;;17.30;99.90;;;;;;4936497;29;20098;-88
2023/09/29 05:27:32;;;;;;;1.50;0.40;;;17.30;99.90;;;;;;4952396;28;20078;-88
2023/09/29 05:29:58;;;;;;;2.25;0.50;;;17.30;99.90;;;;;;4916201;29;20039;-92
2023/09/29 05:32:24;;;;;;;1.90;0.43;;;17.30;99.90;;;;;;4934804;28;20110;-89
2023/09/29 05:34:51;;;;;;;1.67;0.40;;;17.40;99.90;;;;;;4935596;29;20117;-88
2023/09/29 05:37:17;;;;;;;1.30;0.40;;;17.40;99.90;;;;;;4936130;29;20444;-86
2023/09/29 05:39:43;;;;;;;1.73;0.80;;;17.40;99.90;;;;;;4940862;28;20094;-91
2023/09/29 05:42:10;;;;;;;2.28;0.40;;;17.40;99.90;;;;;;4936349;29;20341;-89
2023/09/29 05:44:36;;;;;;;1.20;0.40;;;17.40;99.90;;;;;;4951996;29;20019;-89
2023/09/29 05:47:03;;;;;;;2.45;0.40;;;17.50;99.90;;;;;;4935177;29;20027;-89
2023/09/29 05:49:28;;;;;;;1.08;0.35;;;17.50;99.90;;;;;;4917713;29;20062;-89
2023/09/29 05:51:54;;;;;;;1.63;0.35;;;17.50;99.90;;;;;;4935447;29;20467;-91
2023/09/29 05:54:20;;;;;;;2.55;0.40;;;17.50;99.90;;;;;;4934861;29;20034;-91
2023/09/29 05:56:46;;;;;;;1.63;0.60;;;17.60;99.90;;;;;;4935414;29;20426;-88
2023/09/29 05:59:11;;;;;;;1.60;0.40;;;17.60;99.90;;;;;;4919261;29;20502;-88
2023/09/29 06:01:38;;;;;;;1.95;0.50;;;17.60;99.90;;;;;;4918935;28;20110;-89
2023/09/29 06:04:04;;;;;;;1.63;0.50;;;17.60;99.90;;;;;;4951655;28;20042;-90
2023/09/29 06:06:29;;;;;;;1.45;0.40;;;17.70;99.90;;;;;;4920374;28;20031;-88
2023/09/29 06:08:55;;;;;;;1.55;0.43;;;17.70;99.90;;;;;;4934560;29;20535;-88
2023/09/29 06:11:21;;;;;;;1.60;0.40;;;17.70;99.90;;;;;;4923466;29;20122;-89
2023/09/29 06:13:48;;;;;;;1.27;0.38;;;17.80;99.90;;;;;;4916145;28;20042;-89
2023/09/29 06:16:16;;;;;;;1.63;0.40;;;17.80;99.90;;;;;;4919043;29;20134;-89
2023/09/29 06:18:44;;;;;;;0.90;0.30;;;17.80;99.90;;;;;;4934599;29;20066;-92
2023/09/29 06:21:18;;;;;;;2.22;0.30;;;17.80;99.90;;;;;;4922805;29;20035;-91
2023/09/29 06:23:45;;;;;;;1.20;0.40;;;17.80;99.90;;;;;;4918575;29;20043;-94
2023/09/29 06:26:15;;;;;;;1.52;0.30;;;17.90;99.90;;;;;;4921870;29;20031;-94
2023/09/29 06:29:04;;;;;;;1.33;0.40;;;17.90;99.90;;;;;;4937835;28;20627;-91
2023/09/29 06:31:40;;;;;;;1.40;0.40;;;17.90;99.90;;;;;;4944118;29;20031;-93
2023/09/29 06:34:13;;;;;;;1.48;0.40;;;18.00;99.90;;;;;;4958454;28;20114;-92
2023/09/29 06:36:39;;;;;;;1.30;0.40;;;18.20;99.90;;;;;;4924764;29;20031;-92
2023/09/29 06:39:07;;;;;;;1.08;0.40;;;18.30;99.90;;;;;;4927126;28;20023;-92
2023/09/29 06:41:36;;;;;;;1.10;0.40;;;18.40;99.90;;;;;;4940972;28;20043;-92
2023/09/29 06:44:05;;;;;;;1.95;0.50;;;18.40;99.90;;;;;;4920127;29;20396;-92
2023/09/29 06:46:32;;;;;;;1.63;0.45;;;18.40;99.90;;;;;;4938980;29;20027;-93
2023/09/29 06:48:58;;;;;;;1.08;0.40;;;18.50;99.90;;;;;;4909220;29;20046;-91
2023/09/29 06:51:25;;;;;;;1.42;0.30;;;18.50;99.90;;;;;;4939019;28;20361;-92
2023/09/29 06:53:50;;;;;;;1.58;0.40;;;18.60;99.90;;;;;;4932424;29;20501;-94
2023/09/29 06:56:16;;;;;;;1.88;0.40;;;18.60;99.90;;;;;;4917037;29;20043;-91
2023/09/29 06:58:42;;;;;;;1.08;0.30;;;18.60;99.90;;;;;;4912805;29;20027;-94
2023/09/29 07:01:08;;;;;;;1.40;0.40;;;18.60;99.90;;;;;;4907938;29;21067;-91
2023/09/29 07:03:38;;;;;;;2.17;0.40;;;18.50;99.90;;;;;;4942024;29;20039;-91
2023/09/29 07:06:04;;;;;;;0.93;0.40;;;18.50;99.90;;;;;;4922854;29;20038;-94
2023/09/29 07:08:30;;;;;;;1.25;0.35;;;18.60;99.90;;;;;;4919874;29;20494;-92
2023/09/29 07:10:56;;;;;;;0.70;0.30;;;18.50;99.90;;;;;;4933585;28;20027;-94
2023/09/29 07:13:22;;;;;;;0.88;0.30;;;18.60;99.90;;;;;;4920693;29;20035;-91
2023/09/29 07:15:49;;;;;;;1.23;0.40;;;18.50;99.90;;;;;;4941953;28;20110;-93
2023/09/29 07:18:16;;;;;;;1.40;0.38;;;18.60;99.90;;;;;;4915787;29;20552;-93
2023/09/29 07:20:45;;;;;;;1.05;0.30;;;18.60;99.90;;;;;;4935305;29;20035;-91
2023/09/29 07:23:11;;;;;;;0.75;0.20;;;18.60;99.90;;;;;;4949983;28;20093;-94
2023/09/29 07:25:38;;;;;;;1.02;0.30;;;18.70;99.90;;;;;;4921168;28;20027;-94
2023/09/29 07:28:13;;;;;;;0.73;0.30;;;18.70;99.90;;;;;;4916006;29;20084;-92
2023/09/29 07:30:40;;;;;;;2.15;0.20;;;18.60;99.90;;;;;;4922389;28;20041;-92
2023/09/29 07:33:06;;;;;;;1.70;0.30;;;18.60;99.90;;;;;;4922386;28;20031;-92
2023/09/29 07:35:32;;;;;;;2.25;0.30;;;18.60;99.90;;;;;;4937673;28;20037;-92
2023/09/29 07:37:59;;;;;;;1.38;0.30;;;18.60;99.90;;;;;;4917851;28;20027;-91
2023/09/29 07:40:25;;;;;;;1.10;0.30;;;18.60;99.90;;;;;;4920370;29;20031;-93
2023/09/29 07:42:51;;;;;;;1.27;0.30;;;18.70;99.90;;;;;;4920721;29;20027;-91
2023/09/29 07:45:20;;;;;;;1.00;0.30;;;18.80;99.90;;;;;;4924496;28;20031;-93
2023/09/29 07:47:47;;;;;;;1.67;0.30;;;18.90;99.90;;;;;;4920308;28;20043;-92
2023/09/29 07:50:13;;;;;;;1.00;0.30;;;19.00;99.90;;;;;;4937872;29;20031;-92
2023/09/29 07:52:40;;;;;;;0.90;0.30;;;19.00;99.90;;;;;;4956418;28;20093;-90
2023/09/29 07:55:11;;;;;;;0.95;0.22;;;19.10;99.90;;;;;;4919064;29;20055;-92
2023/09/29 07:57:36;;;;;;;2.90;0.28;;;19.10;99.90;;;;;;4953817;28;20027;-92
2023/09/29 08:00:05;;;;;;;0.63;0.30;;;19.30;99.90;;;;;;4937131;28;20472;-90
2023/09/29 08:02:43;;;;;;;0.82;0.20;;;19.40;99.90;;;;;;4936128;29;20047;-92
2023/09/29 08:05:12;;;;;;;0.88;0.28;;;19.60;99.90;;;;;;4917413;29;20063;-93
2023/09/29 08:07:42;;;;;;;2.22;0.30;;;19.70;99.90;;;;;;4922647;29;20031;-91
2023/09/29 08:10:09;;;;;;;;;;;19.80;99.90;;;;;;4920549;29;20037;-91
2023/09/29 08:12:36;;;;;;;1.15;0.30;;;19.80;99.90;;;;;;4922240;29;19980;-90
2023/09/29 08:15:06;;;;;;;1.50;0.20;;;19.80;99.90;;;;;;4936794;29;20035;-90
2023/09/29 08:17:32;;;;;;;0.82;0.30;;;19.90;99.90;;;;;;4951327;28;20039;-92
2023/09/29 08:20:05;;;;;;;1.08;0.30;;;19.90;99.90;;;;;;4936370;29;20475;-92
2023/09/29 08:22:32;;;;;;;0.85;0.30;;;19.90;99.90;;;;;;4920805;29;20074;-91
2023/09/29 08:25:07;;;;;;;1.10;0.40;;;20.00;99.90;;;;;;4900279;29;20479;-91
2023/09/29 08:27:35;;;;;;;1.10;0.40;;;20.00;99.90;;;;;;4920948;29;20031;-90
2023/09/29 08:30:01;;;;;;;1.55;0.30;;;20.00;99.90;;;;;;4923596;29;20039;-93
2023/09/29 08:32:31;;;;;;;1.77;0.50;;;19.90;99.90;;;;;;4939942;29;20083;-92
2023/09/29 08:34:58;;;;;;;;;;;20.00;99.90;;;;;;4918052;29;20050;-90
2023/09/29 08:37:25;;;;;;;1.23;0.35;;;20.00;99.90;;;;;;4954188;28;19910;-94
2023/09/29 08:39:53;;;;;;;0.95;0.30;;;20.10;99.90;;;;;;4921674;28;20050;-91
2023/09/29 08:42:38;;;;;;;1.35;0.50;;;20.20;99.90;;;;;;4934766;29;20039;-92
2023/09/29 08:45:16;;;;;;;1.48;0.40;;;20.10;99.90;;;;;;4934352;29;20042;-92
2023/09/29 08:47:50;;;;;;;1.70;0.40;;;20.20;99.90;;;;;;4924312;28;20082;-91
2023/09/29 08:50:44;;;;;;;1.00;0.30;;;20.30;99.90;;;;;;4943468;28;20137;-91
2023/09/29 08:53:14;;;;;;;1.20;0.40;;;20.40;99.90;;;;;;4933337;29;20031;-91
2023/09/29 08:55:49;;;;;;;2.50;0.30;;;20.60;99.90;;;;;;4920391;28;20286;-91
2023/09/29 08:58:16;;;;;;;1.02;0.40;;;20.80;99.90;;;;;;4939291;29;20038;-93
2023/09/29 09:00:43;;;;;;;1.38;0.40;;;21.00;99.90;;;;;;4921821;28;20054;-93
2023/09/29 09:03:12;;;;;;;1.30;0.40;;;21.20;99.90;;;;;;4922899;29;20039;-94
2023/09/29 09:05:47;;;;;;;0.90;0.40;;;21.60;99.90;;;;;;4936001;28;20063;-92
2023/09/29 09:21:41;;;;;;;2.40;0.50;;;22.20;99.90;;;;;;4979003;28;20492;-91
2023/09/29 09:24:40;;;;;;;1.58;0.40;;;22.00;99.90;;;;;;4976870;28;20112;-92
2023/09/29 09:27:09;;;;;;;1.83;0.40;;;21.90;99.90;;;;;;4977692;28;20023;-93
2023/09/29 09:29:43;;;;;;;1.15;0.40;;;21.80;99.90;;;;;;4963173;28;20307;-93
2023/09/29 09:32:15;;;;;;;3.10;0.50;;;21.80;99.90;;;;;;4993056;23;20053;-91
2023/09/29 09:34:42;;;;;;;2.05;0.50;;;21.60;99.90;;;;;;4955411;28;20132;-92
2023/09/29 09:37:12;;;;;;;1.30;0.40;;;21.80;99.90;;;;;;4974616;28;20150;-92
2023/09/29 09:39:42;;;;;;;2.38;0.40;;;22.00;99.90;;;;;;4973488;28;20085;-94
2023/09/29 09:42:11;;;;;;;3.13;0.50;;;22.00;99.90;;;;;;4989894;28;20030;-92
2023/09/29 09:44:40;;;;;;;2.83;0.70;;;21.90;99.90;;;;;;4973339;28;20046;-91
2023/09/29 09:47:14;;;;;;;3.72;0.45;;;21.60;99.90;;;;;;4958005;28;20069;-91
2023/09/29 09:49:48;;;;;;;1.85;0.50;;;21.60;99.90;;;;;;4973638;28;20030;-93
2023/09/29 09:52:24;;;;;;;2.50;0.55;;;21.50;99.90;;;;;;4962289;28;20780;-91
2023/09/29 09:55:02;;;;;;;1.48;0.43;;;21.50;99.90;;;;;;4972685;28;20073;-91
2023/09/29 09:57:33;;;;;;;4.10;0.50;;;21.50;99.90;;;;;;4973624;28;20122;-91
2023/09/29 10:00:12;;;;;;;2.58;0.57;;;21.50;99.90;;;;;;4995037;23;20051;-89
2023/09/29 10:03:03;;;;;;;;;;;21.70;99.90;;;;;;4972939;28;20134;-94
2023/09/29 10:05:40;;;;;;;2.00;0.70;;;21.70;99.90;;;;;;4979092;23;19922;-91
2023/09/29 10:08:13;;;;;;;3.83;0.70;;;21.80;99.90;;;;;;4966869;28;20125;-92
2023/09/29 10:10:41;;;;;;;4.47;0.70;;;21.80;99.90;;;;;;4964156;28;20030;-94
2023/09/29 10:13:12;;;;;;;4.13;0.93;;;21.90;99.90;;;;;;4994855;28;20038;-91
2023/09/29 10:15:39;;;;;;;2.03;0.60;;;21.90;99.90;;;;;;4979554;28;20030;-91
2023/09/29 10:18:55;;;;;;;2.53;0.60;;;22.10;99.90;;;;;;4995430;28;20061;-91
2023/09/29 10:21:26;;;;;;;2.35;0.60;;;22.00;99.90;;;;;;4926403;23;20078;-90
2023/09/29 10:23:54;;;;;;;3.13;0.50;;;21.90;99.90;;;;;;4957369;28;20053;-92
2023/09/29 10:26:22;;;;;;;2.42;0.50;;;21.80;99.90;;;;;;4940835;29;20031;-93
2023/09/29 10:29:00;;;;;;;3.63;0.60;;;21.70;99.90;;;;;;4926467;29;20031;-92
2023/09/29 10:31:35;;;;;;;2.95;0.70;;;21.70;99.90;;;;;;4915079;29;20492;-91
2023/09/29 10:34:08;;;;;;;2.35;0.70;;;21.70;99.90;;;;;;4907364;28;20142;-92
2023/09/29 10:37:06;;;;;;;2.33;0.50;;;21.80;99.90;;;;;;4942469;29;20443;-95
2023/09/29 10:39:35;;;;;;;3.33;0.50;;;21.90;99.90;;;;;;4960273;28;20033;-93
2023/09/29 10:44:56;;;;;;;3.80;0.65;;;21.70;99.90;;;;;;4947613;29;20035;-91
2023/09/29 10:47:36;;;;;;;3.58;0.50;;;21.50;99.90;;;;;;4942135;29;20031;-89
2023/09/29 10:50:10;;;;;;;1.70;0.50;;;21.60;99.90;;;;;;4947222;29;20031;-94
2023/09/29 10:52:37;;;;;;;1.98;0.47;;;21.60;99.90;;;;;;4923790;29;20483;-93
2023/09/29 10:55:14;;;;;;;1.85;0.40;;;21.70;99.90;;;;;;4957109;28;20027;-94
2023/09/29 10:57:43;;;;;;;2.58;0.50;;;21.80;99.90;;;;;;4950527;29;20491;-92
2023/09/29 11:00:14;;;;;;;2.20;0.45;;;21.80;99.90;;;;;;4938279;29;20034;-92
2023/09/29 11:02:48;;;;;;;1.83;0.50;;;21.80;99.90;;;;;;4957646;29;20027;-94
2023/09/29 11:05:14;;;;;;;2.08;0.45;;;21.60;99.90;;;;;;4957038;28;20143;-91
2023/09/29 11:07:52;;;;;;;1.35;0.50;;;21.60;99.90;;;;;;4957428;29;20051;-91
2023/09/29 11:10:19;;;;;;;4.15;0.60;;;21.50;99.90;;;;;;4922825;29;20081;-91
2023/09/29 11:12:49;;;;;;;2.92;0.50;;;21.10;99.90;;;;;;4923182;29;20023;-92
2023/09/29 11:15:17;;;;;;;2.22;0.50;;;21.00;99.90;;;;;;4939055;29;20031;-91
2023/09/29 11:17:46;;;;;;;3.22;0.52;;;20.90;99.90;;;;;;4919031;29;20058;-94
2023/09/29 11:20:26;;;;;;;2.25;0.80;;;21.10;99.90;;;;;;4951803;29;20087;-94
2023/09/29 11:23:11;;;;;;;1.75;0.50;;;21.10;99.90;;;;;;4917252;29;20047;-95
2023/09/29 11:25:51;;;;;;;2.08;0.52;;;21.20;99.90;;;;;;4937822;29;20054;-92
2023/09/29 11:28:17;;;;;;;1.85;0.50;;;21.40;99.90;;;;;;4936853;29;20101;-91
2023/09/29 11:30:44;;;;;;;1.35;0.40;;;21.70;99.90;;;;;;4937810;29;20031;-93
2023/09/29 11:33:17;;;;;;;4.32;0.40;;;22.10;99.90;;;;;;4918220;29;20114;-90
2023/09/29 11:35:46;;;;;;;1.80;0.47;;;22.30;99.90;;;;;;4933535;29;20050;-92
2023/09/29 11:38:19;;;;;;;2.47;0.50;;;22.30;99.90;;;;;;4953355;29;20058;-94
2023/09/29 11:40:50;;;;;;;2.17;0.60;;;22.00;99.90;;;;;;4937890;29;20089;-93
2023/09/29 11:43:16;;;;;;;1.40;0.40;;;21.90;99.90;;;;;;4920517;29;20110;-92
2023/09/29 11:45:47;;;;;;;1.58;0.40;;;21.90;99.90;;;;;;4919314;29;20107;-91
2023/09/29 11:48:16;;;;;;;1.83;0.40;;;21.80;99.90;;;;;;4920654;29;20063;-92
2023/09/29 11:50:53;;;;;;;3.45;0.50;;;21.60;99.90;;;;;;4954474;29;20308;-91
2023/09/29 11:53:19;;;;;;;2.67;0.63;;;21.40;99.90;;;;;;4935039;29;20023;-91
2023/09/29 11:55:48;;;;;;;2.42;0.50;;;21.50;99.90;;;;;;4953647;29;20046;-91
2023/09/29 11:58:14;;;;;;;2.55;0.52;;;21.60;99.90;;;;;;4937959;29;20063;-91
2023/09/29 12:00:41;;;;;;;1.25;0.40;;;21.60;99.90;;;;;;4937723;29;20110;-91
2023/09/29 12:03:08;;;;;;;1.35;0.40;;;21.70;99.90;;;;;;4938288;29;20569;-91
2023/09/29 12:05:37;;;;;;;1.48;0.50;;;21.90;99.90;;;;;;4952937;29;20043;-91
2023/09/29 12:08:12;;;;;;;2.28;0.50;;;22.20;99.90;;;;;;4938081;29;20043;-95
2023/09/29 12:10:42;;;;;;;1.88;0.50;;;22.60;99.90;;;;;;4953288;29;20106;-92
2023/09/29 12:13:10;;;;;;;1.95;0.47;;;22.80;99.90;;;;;;4918804;29;20028;-91
2023/09/29 12:15:37;;;;;;;1.83;0.43;;;22.80;99.90;;;;;;4923869;29;20027;-94
2023/09/29 12:18:06;;;;;;;2.25;0.50;;;22.70;99.90;;;;;;4918263;29;20024;-92
2023/09/29 12:20:35;;;;;;;1.80;0.40;;;22.60;99.90;;;;;;4979921;23;20070;-91
2023/09/29 12:23:01;;;;;;;1.40;0.40;;;22.50;99.90;;;;;;4939873;28;20038;-91
2023/09/29 12:25:28;;;;;;;2.53;0.50;;;22.30;99.90;;;;;;4942208;28;20055;-91
2023/09/29 12:27:54;;;;;;;2.13;0.45;;;21.90;99.90;;;;;;4965483;23;20399;-91
2023/09/29 12:30:22;;;;;;;4.10;0.60;;;21.80;99.90;;;;;;4955152;28;20046;-93
2023/09/29 12:32:48;;;;;;;2.35;0.50;;;21.30;99.90;;;;;;4955791;28;20039;-93
2023/09/29 12:35:14;;;;;;;3.58;0.60;;;20.90;99.90;;;;;;4969828;28;20038;-93
2023/09/29 12:37:42;;;;;;;3.42;0.63;;;20.60;99.90;;;;;;4955988;28;20037;-91
2023/09/29 12:40:09;;;;;;;2.22;0.52;;;20.40;99.90;;;;;;4951747;28;20034;-90
2023/09/29 12:43:14;;;;;;;2.83;1.10;;;20.20;99.90;;;;;;4971871;28;20039;-93
2023/09/29 12:46:05;;;;;;;2.88;0.70;;;20.00;99.90;;;;;;4958306;28;20077;-93
2023/09/29 12:48:30;;;;;;;3.75;1.10;;;19.80;99.90;;;;;;4954589;28;20066;-93
2023/09/29 12:50:56;;;;;;;4.75;1.83;;;19.70;99.90;;;;;;4967060;28;20038;-89
2023/09/29 12:53:24;;;;;;;3.85;1.58;;;19.50;99.90;;;;;;4969070;28;20117;-91
2023/09/29 12:55:52;;;;;;;4.55;1.63;;;19.50;99.90;;;;;;4953760;28;20027;-93
2023/09/29 12:58:18;;;;;;;5.40;2.15;;;19.40;99.90;;;;;;4954426;28;20046;-90
2023/09/29 13:00:44;;;;;;;3.47;1.67;;;19.30;99.90;;;;;;4951593;28;20403;-89
2023/09/29 13:03:10;;;;;;;4.38;1.70;;;19.40;99.90;;;;;;4970071;28;20058;-88
2023/09/29 13:05:38;;;;;;;1.70;0.82;;;19.50;99.90;;;;;;4954249;28;20027;-87
2023/09/29 13:08:04;;;;;;;1.73;0.63;;;19.40;99.90;;;;;;4965352;28;20476;-90
2023/09/29 13:10:35;;;;;;;3.00;0.50;;;19.50;99.90;;;;;;4969309;28;20034;-88
2023/09/29 13:13:03;;;;;;;2.10;0.45;;;19.40;99.90;;;;;;4940953;28;20403;-90
2023/09/29 13:15:31;;;;;;;1.67;0.50;;;19.30;99.90;;;;;;4953477;28;20069;-88